Weather at Marudi Airport

Public forecast

Using degrees Celsius for public forecast. Weather courtesy of forecast.io.

Closest aviation weather report (METAR) to Marudi Airport

Closest report is Miri Airport, 22.2 nm (41.1 km) WNW. Retrieved 2022/05/21 20:00 UTC (1 hour ago):

WBGR 212000Z VRB02KT 9999 FEW015CB SCT016 25/25 Q1007

Closest aviation forecast (TAF) to Marudi Airport

Closest forecast is Miri Airport, 22.2 nm (41.1 km) WNW. Retrieved 2022/05/21 18:00 UTC (3 hours ago):

TAF WBGR 211700Z 2118/2218 12005KT 9999 FEW016